sensor_id;sensor_type;location;lat;lon;timestamp;pressure;altitude;pressure_sealevel;temperature
75658;BMP280;64255;49.892;17.884;2023-06-10T05:02:33;98521.84;;;16.67
75658;BMP280;64255;49.892;17.884;2023-06-10T05:05:19;98527.69;;;16.71
75658;BMP280;64255;49.892;17.884;2023-06-10T05:08:06;98530.34;;;16.76
75658;BMP280;64255;49.892;17.884;2023-06-10T05:10:52;98527.63;;;16.76
75658;BMP280;64255;49.892;17.884;2023-06-10T05:13:39;98527.63;;;16.76
75658;BMP280;64255;49.892;17.884;2023-06-10T05:16:25;98533.47;;;16.80
75658;BMP280;64255;49.892;17.884;2023-06-10T05:19:12;98537.88;;;16.84
75658;BMP280;64255;49.892;17.884;2023-06-10T05:21:58;98534.69;;;16.85
75658;BMP280;64255;49.892;17.884;2023-06-10T05:24:44;98542.56;;;16.83
75658;BMP280;64255;49.892;17.884;2023-06-10T05:27:31;98544.69;;;16.90
75658;BMP280;64255;49.892;17.884;2023-06-10T05:30:17;98547.31;;;16.96
75658;BMP280;64255;49.892;17.884;2023-06-10T05:33:05;98560.03;;;17.01
75658;BMP280;64255;49.892;17.884;2023-06-10T05:35:51;98546.66;;;16.90
75658;BMP280;64255;49.892;17.884;2023-06-10T05:38:38;98547.19;;;17.07
75658;BMP280;64255;49.892;17.884;2023-06-10T05:41:24;98553.03;;;17.11
75658;BMP280;64255;49.892;17.884;2023-06-10T05:44:11;98550.81;;;17.15
75658;BMP280;64255;49.892;17.884;2023-06-10T05:46:57;98560.94;;;17.09
75658;BMP280;64255;49.892;17.884;2023-06-10T05:49:44;98559.56;;;17.22
75658;BMP280;64255;49.892;17.884;2023-06-10T05:52:30;98557.31;;;17.26
75658;BMP280;64255;49.892;17.884;2023-06-10T05:55:17;98556.25;;;17.29
75658;BMP280;64255;49.892;17.884;2023-06-10T05:58:03;98551.00;;;17.17
75658;BMP280;64255;49.892;17.884;2023-06-10T06:00:50;98564.44;;;17.23
75658;BMP280;64255;49.892;17.884;2023-06-10T06:03:36;98557.25;;;17.31
75658;BMP280;64255;49.892;17.884;2023-06-10T06:06:23;98551.66;;;17.24
75658;BMP280;64255;49.892;17.884;2023-06-10T06:09:10;98558.78;;;17.27
75658;BMP280;64255;49.892;17.884;2023-06-10T06:11:56;98550.19;;;17.23
75658;BMP280;64255;49.892;17.884;2023-06-10T06:14:43;98552.69;;;17.21
75658;BMP280;64255;49.892;17.884;2023-06-10T06:17:29;98552.69;;;17.21
75658;BMP280;64255;49.892;17.884;2023-06-10T06:20:16;98557.16;;;17.18
75658;BMP280;64255;49.892;17.884;2023-06-10T06:23:02;98559.28;;;17.25
75658;BMP280;64255;49.892;17.884;2023-06-10T06:25:49;98554.69;;;17.39
75658;BMP280;64255;49.892;17.884;2023-06-10T06:28:35;98553.22;;;17.57
75658;BMP280;64255;49.892;17.884;2023-06-10T06:31:22;98563.78;;;17.74
75658;BMP280;64255;49.892;17.884;2023-06-10T06:34:08;98566.28;;;17.91
75658;BMP280;64255;49.892;17.884;2023-06-10T06:36:55;98573.19;;;18.06
75658;BMP280;64255;49.892;17.884;2023-06-10T06:39:41;98565.63;;;17.98
75658;BMP280;64255;49.892;17.884;2023-06-10T06:42:28;98570.41;;;18.11
75658;BMP280;64255;49.892;17.884;2023-06-10T06:45:14;98574.00;;;18.00
75658;BMP280;64255;49.892;17.884;2023-06-10T06:48:01;98581.22;;;18.11
75658;BMP280;64255;49.892;17.884;2023-06-10T06:50:48;98584.13;;;18.13
75658;BMP280;64255;49.892;17.884;2023-06-10T06:53:34;98579.38;;;18.19
75658;BMP280;64255;49.892;17.884;2023-06-10T06:56:21;98580.81;;;18.07
75658;BMP280;64255;49.892;17.884;2023-06-10T06:59:07;98582.75;;;18.07
75658;BMP280;64255;49.892;17.884;2023-06-10T07:01:54;98588.53;;;18.16
75658;BMP280;64255;49.892;17.884;2023-06-10T07:04:40;98581.41;;;18.13
75658;BMP280;64255;49.892;17.884;2023-06-10T07:07:27;98579.41;;;18.00
75658;BMP280;64255;49.892;17.884;2023-06-10T07:10:13;98576.75;;;18.14
75658;BMP280;64255;49.892;17.884;2023-06-10T07:13:00;98586.44;;;18.23
75658;BMP280;64255;49.892;17.884;2023-06-10T07:15:46;98577.63;;;18.35
75658;BMP280;64255;49.892;17.884;2023-06-10T07:18:33;98583.59;;;18.47
75658;BMP280;64255;49.892;17.884;2023-06-10T07:21:19;98583.69;;;18.42
75658;BMP280;64255;49.892;17.884;2023-06-10T07:24:06;98579.94;;;18.58
75658;BMP280;64255;49.892;17.884;2023-06-10T07:26:52;98583.19;;;18.70
75658;BMP280;64255;49.892;17.884;2023-06-10T07:29:39;98589.63;;;18.67
75658;BMP280;64255;49.892;17.884;2023-06-10T07:32:25;98589.72;;;18.48
75658;BMP280;64255;49.892;17.884;2023-06-10T07:35:15;98599.22;;;18.41
75658;BMP280;64255;49.892;17.884;2023-06-10T07:38:01;98598.88;;;18.31
75658;BMP280;64255;49.892;17.884;2023-06-10T07:40:48;98598.59;;;18.35
75658;BMP280;64255;49.892;17.884;2023-06-10T07:43:34;98589.94;;;18.36
75658;BMP280;64255;49.892;17.884;2023-06-10T07:46:22;98591.50;;;18.45
75658;BMP280;64255;49.892;17.884;2023-06-10T07:49:08;98598.09;;;18.50
75658;BMP280;64255;49.892;17.884;2023-06-10T07:51:55;98599.44;;;18.56
75658;BMP280;64255;49.892;17.884;2023-06-10T07:54:41;98599.84;;;18.47
75658;BMP280;64255;49.892;17.884;2023-06-10T07:57:28;98595.91;;;18.48
75658;BMP280;64255;49.892;17.884;2023-06-10T08:00:15;98598.59;;;18.48
75658;BMP280;64255;49.892;17.884;2023-06-10T08:03:02;98606.72;;;18.35
75658;BMP280;64255;49.892;17.884;2023-06-10T08:05:48;98609.44;;;18.48
75658;BMP280;64255;49.892;17.884;2023-06-10T08:08:35;98614.78;;;18.54
75658;BMP280;64255;49.892;17.884;2023-06-10T08:11:22;98609.84;;;18.52
75658;BMP280;64255;49.892;17.884;2023-06-10T08:14:08;98616.31;;;18.49
75658;BMP280;64255;49.892;17.884;2023-06-10T08:16:55;98620.44;;;18.37
75658;BMP280;64255;49.892;17.884;2023-06-10T08:19:41;98619.13;;;18.44
75658;BMP280;64255;49.892;17.884;2023-06-10T08:22:28;98625.47;;;18.33
75658;BMP280;64255;49.892;17.884;2023-06-10T08:25:14;98621.72;;;18.49
75658;BMP280;64255;49.892;17.884;2023-06-10T08:28:01;98631.63;;;18.47
75658;BMP280;64255;49.892;17.884;2023-06-10T08:30:48;98617.72;;;18.37
75658;BMP280;64255;49.892;17.884;2023-06-10T08:33:34;98630.34;;;18.34
75658;BMP280;64255;49.892;17.884;2023-06-10T08:36:21;98629.63;;;18.34
75658;BMP280;64255;49.892;17.884;2023-06-10T08:39:07;98628.81;;;18.39
75658;BMP280;64255;49.892;17.884;2023-06-10T08:42:23;98630.78;;;18.38
75658;BMP280;64255;49.892;17.884;2023-06-10T08:45:17;98642.72;;;18.16
75658;BMP280;64255;49.892;17.884;2023-06-10T08:48:05;98643.88;;;18.21
75658;BMP280;64255;49.892;17.884;2023-06-10T08:50:52;98646.06;;;18.23
75658;BMP280;64255;49.892;17.884;2023-06-10T08:53:53;98645.19;;;18.14
75658;BMP280;64255;49.892;17.884;2023-06-10T08:56:43;98639.41;;;18.24
75658;BMP280;64255;49.892;17.884;2023-06-10T08:59:30;98639.31;;;18.43
75658;BMP280;64255;49.892;17.884;2023-06-10T09:02:17;98642.22;;;18.77
75658;BMP280;64255;49.892;17.884;2023-06-10T09:05:05;98640.09;;;19.37
75658;BMP280;64255;49.892;17.884;2023-06-10T09:07:53;98634.59;;;19.16
75658;BMP280;64255;49.892;17.884;2023-06-10T09:10:40;98638.53;;;19.28
75658;BMP280;64255;49.892;17.884;2023-06-10T09:13:27;98636.78;;;19.44
75658;BMP280;64255;49.892;17.884;2023-06-10T09:16:13;98643.66;;;19.45
75658;BMP280;64255;49.892;17.884;2023-06-10T09:19:00;98639.69;;;19.33
75658;BMP280;64255;49.892;17.884;2023-06-10T09:21:47;98641.59;;;19.11
75658;BMP280;64255;49.892;17.884;2023-06-10T09:24:33;98644.00;;;19.01
75658;BMP280;64255;49.892;17.884;2023-06-10T09:27:20;98641.50;;;18.77
75658;BMP280;64255;49.892;17.884;2023-06-10T09:30:07;98646.81;;;18.82
75658;BMP280;64255;49.892;17.884;2023-06-10T09:32:56;98644.50;;;19.13
75658;BMP280;64255;49.892;17.884;2023-06-10T09:35:48;98644.38;;;19.32
75658;BMP280;64255;49.892;17.884;2023-06-10T09:38:36;98653.28;;;19.19
75658;BMP280;64255;49.892;17.884;2023-06-10T09:41:31;98646.19;;;19.30
75658;BMP280;64255;49.892;17.884;2023-06-10T09:44:20;98653.53;;;19.08
75658;BMP280;64255;49.892;17.884;2023-06-10T09:47:06;98650.47;;;18.98
75658;BMP280;64255;49.892;17.884;2023-06-10T09:49:53;98652.22;;;19.09
75658;BMP280;64255;49.892;17.884;2023-06-10T09:52:40;98651.28;;;19.33
75658;BMP280;64255;49.892;17.884;2023-06-10T09:55:26;98647.38;;;19.55
75658;BMP280;64255;49.892;17.884;2023-06-10T09:58:13;98656.44;;;19.71
75658;BMP280;64255;49.892;17.884;2023-06-10T10:01:14;98655.25;;;19.32
75658;BMP280;64255;49.892;17.884;2023-06-10T10:04:01;98657.91;;;19.72
75658;BMP280;64255;49.892;17.884;2023-06-10T10:06:47;98654.78;;;19.55
75658;BMP280;64255;49.892;17.884;2023-06-10T10:09:36;98654.19;;;19.83
75658;BMP280;64255;49.892;17.884;2023-06-10T10:12:23;98655.59;;;19.97
75658;BMP280;64255;49.892;17.884;2023-06-10T10:15:11;98663.16;;;19.91
75658;BMP280;64255;49.892;17.884;2023-06-10T10:18:10;98658.91;;;20.25
75658;BMP280;64255;49.892;17.884;2023-06-10T10:21:01;98654.66;;;20.37
75658;BMP280;64255;49.892;17.884;2023-06-10T10:24:07;98646.25;;;20.27
75658;BMP280;64255;49.892;17.884;2023-06-10T10:26:59;98648.59;;;20.52
75658;BMP280;64255;49.892;17.884;2023-06-10T10:29:49;98651.75;;;20.14
75658;BMP280;64255;49.892;17.884;2023-06-10T10:35:43;98645.16;;;20.51
75658;BMP280;64255;49.892;17.884;2023-06-10T10:38:31;98643.97;;;20.60
75658;BMP280;64255;49.892;17.884;2023-06-10T10:41:20;98641.75;;;20.87
75658;BMP280;64255;49.892;17.884;2023-06-10T10:44:07;98638.97;;;21.16
75658;BMP280;64255;49.892;17.884;2023-06-10T10:46:55;98638.19;;;21.45
75658;BMP280;64255;49.892;17.884;2023-06-10T10:49:46;98633.50;;;21.91
75658;BMP280;64255;49.892;17.884;2023-06-10T10:52:55;98635.47;;;21.60
75658;BMP280;64255;49.892;17.884;2023-06-10T10:55:41;98623.88;;;21.83
75658;BMP280;64255;49.892;17.884;2023-06-10T10:58:28;98612.97;;;21.75
75658;BMP280;64255;49.892;17.884;2023-06-10T11:01:15;98616.78;;;21.72
75658;BMP280;64255;49.892;17.884;2023-06-10T11:04:08;98615.69;;;21.59
75658;BMP280;64255;49.892;17.884;2023-06-10T11:06:54;98600.81;;;21.68
75658;BMP280;64255;49.892;17.884;2023-06-10T11:12:52;98615.19;;;22.00
75658;BMP280;64255;49.892;17.884;2023-06-10T11:15:45;98604.25;;;21.76
75658;BMP280;64255;49.892;17.884;2023-06-10T11:18:40;98603.84;;;21.41
75658;BMP280;64255;49.892;17.884;2023-06-10T11:21:27;98602.78;;;21.45
75658;BMP280;64255;49.892;17.884;2023-06-10T11:24:13;98597.00;;;21.64
75658;BMP280;64255;49.892;17.884;2023-06-10T11:27:24;98595.34;;;21.61
75658;BMP280;64255;49.892;17.884;2023-06-10T11:30:20;98590.81;;;21.63
75658;BMP280;64255;49.892;17.884;2023-06-10T11:33:17;98581.16;;;21.62
75658;BMP280;64255;49.892;17.884;2023-06-10T11:36:07;98578.28;;;21.45
75658;BMP280;64255;49.892;17.884;2023-06-10T11:38:58;98574.09;;;21.44
75658;BMP280;64255;49.892;17.884;2023-06-10T11:41:45;98571.72;;;21.55
75658;BMP280;64255;49.892;17.884;2023-06-10T11:44:32;98570.09;;;21.91
75658;BMP280;64255;49.892;17.884;2023-06-10T11:47:20;98566.66;;;22.06
75658;BMP280;64255;49.892;17.884;2023-06-10T11:50:07;98567.72;;;22.18
75658;BMP280;64255;49.892;17.884;2023-06-10T11:52:53;98561.75;;;22.12
75658;BMP280;64255;49.892;17.884;2023-06-10T11:58:28;98565.03;;;21.80
75658;BMP280;64255;49.892;17.884;2023-06-10T12:01:21;98574.59;;;21.27
75658;BMP280;64255;49.892;17.884;2023-06-10T12:04:16;98577.41;;;20.98
75658;BMP280;64255;49.892;17.884;2023-06-10T12:07:02;98568.97;;;20.73
75658;BMP280;64255;49.892;17.884;2023-06-10T12:09:59;98581.41;;;20.60
75658;BMP280;64255;49.892;17.884;2023-06-10T12:12:45;98611.13;;;18.78
75658;BMP280;64255;49.892;17.884;2023-06-10T12:15:32;98620.31;;;18.16
75658;BMP280;64255;49.892;17.884;2023-06-10T12:18:23;98621.13;;;18.97
75658;BMP280;64255;49.892;17.884;2023-06-10T12:24:05;98604.22;;;18.50
75658;BMP280;64255;49.892;17.884;2023-06-10T12:26:55;98601.34;;;18.75
75658;BMP280;64255;49.892;17.884;2023-06-10T12:29:52;98604.22;;;17.09
75658;BMP280;64255;49.892;17.884;2023-06-10T12:32:41;98612.03;;;18.08
75658;BMP280;64255;49.892;17.884;2023-06-10T12:35:29;98620.97;;;19.08
75658;BMP280;64255;49.892;17.884;2023-06-10T12:38:25;98612.06;;;19.21
75658;BMP280;64255;49.892;17.884;2023-06-10T12:41:12;98612.81;;;18.68
75658;BMP280;64255;49.892;17.884;2023-06-10T12:43:58;98626.06;;;18.26
75658;BMP280;64255;49.892;17.884;2023-06-10T12:46:45;98622.47;;;17.66
75658;BMP280;64255;49.892;17.884;2023-06-10T12:49:31;98615.16;;;17.80
75658;BMP280;64255;49.892;17.884;2023-06-10T12:52:18;98616.41;;;17.79
75658;BMP280;64255;49.892;17.884;2023-06-10T12:55:05;98608.44;;;17.86
75658;BMP280;64255;49.892;17.884;2023-06-10T12:57:51;98614.75;;;18.08
75658;BMP280;64255;49.892;17.884;2023-06-10T13:00:38;98602.75;;;17.71
75658;BMP280;64255;49.892;17.884;2023-06-10T13:03:25;98604.66;;;17.90
75658;BMP280;64255;49.892;17.884;2023-06-10T13:06:11;98606.19;;;18.04
75658;BMP280;64255;49.892;17.884;2023-06-10T13:08:57;98595.03;;;18.40
75658;BMP280;64255;49.892;17.884;2023-06-10T13:11:45;98589.88;;;18.23
75658;BMP280;64255;49.892;17.884;2023-06-10T13:14:31;98595.69;;;18.73
75658;BMP280;64255;49.892;17.884;2023-06-10T13:17:17;98592.03;;;18.97
75658;BMP280;64255;49.892;17.884;2023-06-10T13:20:05;98596.34;;;19.40
75658;BMP280;64255;49.892;17.884;2023-06-10T13:22:52;98593.22;;;19.36
75658;BMP280;64255;49.892;17.884;2023-06-10T13:25:39;98599.78;;;19.54
75658;BMP280;64255;49.892;17.884;2023-06-10T13:28:25;98590.50;;;19.71
75658;BMP280;64255;49.892;17.884;2023-06-10T13:31:12;98592.69;;;19.93
75658;BMP280;64255;49.892;17.884;2023-06-10T13:33:58;98595.03;;;19.89
75658;BMP280;64255;49.892;17.884;2023-06-10T13:36:45;98598.19;;;20.22
75658;BMP280;64255;49.892;17.884;2023-06-10T13:39:31;98588.72;;;20.15
75658;BMP280;64255;49.892;17.884;2023-06-10T13:42:19;98583.47;;;20.46
75658;BMP280;64255;49.892;17.884;2023-06-10T13:45:06;98584.38;;;20.41
75658;BMP280;64255;49.892;17.884;2023-06-10T13:47:53;98588.50;;;20.35
75658;BMP280;64255;49.892;17.884;2023-06-10T13:50:39;98578.75;;;20.18
75658;BMP280;64255;49.892;17.884;2023-06-10T13:53:26;98577.38;;;20.25
75658;BMP280;64255;49.892;17.884;2023-06-10T13:56:12;98570.78;;;20.41
75658;BMP280;64255;49.892;17.884;2023-06-10T13:58:59;98565.88;;;20.76
75658;BMP280;64255;49.892;17.884;2023-06-10T14:01:46;98558.97;;;21.27
75658;BMP280;64255;49.892;17.884;2023-06-10T14:04:33;98552.97;;;21.29
75658;BMP280;64255;49.892;17.884;2023-06-10T14:07:19;98565.16;;;21.20
75658;BMP280;64255;49.892;17.884;2023-06-10T14:10:06;98557.66;;;21.20
75658;BMP280;64255;49.892;17.884;2023-06-10T14:12:53;98552.97;;;21.29
75658;BMP280;64255;49.892;17.884;2023-06-10T14:15:39;98546.81;;;21.28
75658;BMP280;64255;49.892;17.884;2023-06-10T14:18:26;98549.22;;;21.55
75658;BMP280;64255;49.892;17.884;2023-06-10T14:21:12;98544.31;;;21.61
75658;BMP280;64255;49.892;17.884;2023-06-10T14:23:59;98543.94;;;21.80
75658;BMP280;64255;49.892;17.884;2023-06-10T14:26:45;98545.22;;;21.87
75658;BMP280;64255;49.892;17.884;2023-06-10T14:29:32;98543.94;;;21.72
75658;BMP280;64255;49.892;17.884;2023-06-10T14:32:18;98537.78;;;21.72
75658;BMP280;64255;49.892;17.884;2023-06-10T14:35:05;98539.41;;;21.67
75658;BMP280;64255;49.892;17.884;2023-06-10T14:37:52;98532.31;;;21.49
75658;BMP280;64255;49.892;17.884;2023-06-10T14:40:38;98530.69;;;21.38
75658;BMP280;64255;49.892;17.884;2023-06-10T14:43:25;98538.53;;;21.57
75658;BMP280;64255;49.892;17.884;2023-06-10T14:46:11;98535.22;;;21.35
75658;BMP280;64255;49.892;17.884;2023-06-10T14:48:58;98530.13;;;21.32
75658;BMP280;64255;49.892;17.884;2023-06-10T14:51:44;98544.44;;;21.25
75658;BMP280;64255;49.892;17.884;2023-06-10T14:54:31;98538.97;;;21.17
75658;BMP280;64255;49.892;17.884;2023-06-10T14:57:17;98542.78;;;21.14
75658;BMP280;64255;49.892;17.884;2023-06-10T15:00:05;98538.56;;;20.90
75658;BMP280;64255;49.892;17.884;2023-06-10T15:02:51;98542.16;;;20.92
75658;BMP280;64255;49.892;17.884;2023-06-10T15:05:38;98544.91;;;20.92
75658;BMP280;64255;49.892;17.884;2023-06-10T15:08:24;98548.53;;;20.95
75658;BMP280;64255;49.892;17.884;2023-06-10T15:11:11;98555.03;;;20.84
75658;BMP280;64255;49.892;17.884;2023-06-10T15:13:57;98567.28;;;20.69
75658;BMP280;64255;49.892;17.884;2023-06-10T15:16:44;98578.16;;;20.69
75658;BMP280;64255;49.892;17.884;2023-06-10T15:19:30;98583.59;;;20.69
75658;BMP280;64255;49.892;17.884;2023-06-10T15:22:17;98581.81;;;20.72
75658;BMP280;64255;49.892;17.884;2023-06-10T15:25:04;98578.75;;;20.76
75658;BMP280;64255;49.892;17.884;2023-06-10T15:27:51;98575.16;;;20.81
75658;BMP280;64255;49.892;17.884;2023-06-10T15:30:37;98576.38;;;20.72
75658;BMP280;64255;49.892;17.884;2023-06-10T15:33:24;98551.69;;;20.70
75658;BMP280;64255;49.892;17.884;2023-06-10T15:36:10;98574.28;;;20.57
75658;BMP280;64255;49.892;17.884;2023-06-10T15:39:03;98585.00;;;20.55
75658;BMP280;64255;49.892;17.884;2023-06-10T15:41:50;98600.41;;;20.31
75658;BMP280;64255;49.892;17.884;2023-06-10T15:44:36;98604.00;;;18.62
75658;BMP280;64255;49.892;17.884;2023-06-10T15:47:23;98614.16;;;18.15
75658;BMP280;64255;49.892;17.884;2023-06-10T15:50:10;98608.69;;;18.34
75658;BMP280;64255;49.892;17.884;2023-06-10T15:52:56;98614.22;;;18.42
75658;BMP280;64255;49.892;17.884;2023-06-10T15:55:43;98617.06;;;18.50
75658;BMP280;64255;49.892;17.884;2023-06-10T15:58:30;98624.56;;;18.57
75658;BMP280;64255;49.892;17.884;2023-06-10T16:01:16;98631.09;;;18.35
75658;BMP280;64255;49.892;17.884;2023-06-10T16:04:03;98657.19;;;18.51
75658;BMP280;64255;49.892;17.884;2023-06-10T16:06:50;98666.78;;;18.52
75658;BMP280;64255;49.892;17.884;2023-06-10T16:09:36;98671.94;;;18.24
75658;BMP280;64255;49.892;17.884;2023-06-10T16:12:23;98693.97;;;17.95
75658;BMP280;64255;49.892;17.884;2023-06-10T16:15:10;98683.66;;;17.56
75658;BMP280;64255;49.892;17.884;2023-06-10T16:17:56;98680.69;;;17.54
75658;BMP280;64255;49.892;17.884;2023-06-10T16:20:43;98676.09;;;17.48
75658;BMP280;64255;49.892;17.884;2023-06-10T16:23:29;98675.38;;;17.67
75658;BMP280;64255;49.892;17.884;2023-06-10T16:26:16;98676.22;;;17.62
75658;BMP280;64255;49.892;17.884;2023-06-10T16:29:02;98674.44;;;17.64
75658;BMP280;64255;49.892;17.884;2023-06-10T16:31:49;98679.03;;;17.89
75658;BMP280;64255;49.892;17.884;2023-06-10T16:34:36;98684.09;;;17.98
75658;BMP280;64255;49.892;17.884;2023-06-10T16:37:22;98678.63;;;17.84
75658;BMP280;64255;49.892;17.884;2023-06-10T16:40:09;98676.16;;;17.86
75658;BMP280;64255;49.892;17.884;2023-06-10T16:42:56;98684.75;;;18.04
75658;BMP280;64255;49.892;17.884;2023-06-10T16:45:43;98687.06;;;18.13
75658;BMP280;64255;49.892;17.884;2023-06-10T16:48:29;98681.03;;;18.07
75658;BMP280;64255;49.892;17.884;2023-06-10T16:51:16;98673.25;;;18.17
75658;BMP280;64255;49.892;17.884;2023-06-10T16:54:02;98679.50;;;18.12
75658;BMP280;64255;49.892;17.884;2023-06-10T16:56:49;98676.22;;;18.13
75658;BMP280;64255;49.892;17.884;2023-06-10T16:59:36;98680.06;;;18.24
